Poca, West Virginia
Current Conditions -  °F | °C
As of 3:54 AM on Wednesday 26 Nov 2014 (Local Time) from KCRW Reporting Station
Overcast Overcast  
Wind Chill: 34°   Ceiling: 12000
Heat Index: 38°   Visibility: 10mi
Dew Point: 29°   Wind: 5mph
Humidity: 70%   Direction: 310°NW
Pressure: 30.06"   Gusts: NA
Location:  38.47°N, 81.81°W
Report Text: KCRW 260854Z 31004KT 10SM BKN120 OVC170 03/M02 A3006 RMK AO2 SLP180 T00331017 55016
Loading
Personal Weather Stations






























Interactive Weather Map New forecast layout! Learn more

10-Day Weather Forecast

Advertisements
Track Severe Weather on mobile